Bennett, North Carolina
Current Conditions -  °F | °C
As of 12:15 PM on Friday 19 Dec 2014 (Local Time) from K5W8 Reporting Station
Clear Clear  
Wind Chill: 52°   Ceiling: Unl
Heat Index: 52°   Visibility: 10mi
Dew Point: 22°   Wind: 0mph
Humidity: 31%   Direction: NA
Pressure: 30.13"   Gusts: NA
Location:  35.57°N, 79.54°W
Report Text: K5W8 191715Z AUTO 00000KT 10SM CLR 11/M06 A3013 RMK AO2 T01091057
Loading
Personal Weather Stations






























Interactive Weather Map New forecast layout! Learn more

10-Day Weather Forecast

Advertisements
Track Severe Weather on mobile